sensor_id;sensor_type;location;lat;lon;timestamp;P1;durP1;ratioP1;P2;durP2;ratioP2
54406;SDS011;40313;50.308;30.374;2022-11-15T00:01:46;16.88;;;7.72;;
54406;SDS011;40313;50.308;30.374;2022-11-15T00:04:13;14.88;;;6.45;;
54406;SDS011;40313;50.308;30.374;2022-11-15T00:06:39;12.32;;;6.65;;
54406;SDS011;40313;50.308;30.374;2022-11-15T00:09:06;12.75;;;6.97;;
54406;SDS011;40313;50.308;30.374;2022-11-15T00:11:33;10.02;;;5.93;;
54406;SDS011;40313;50.308;30.374;2022-11-15T00:14:01;9.75;;;6.22;;
54406;SDS011;40313;50.308;30.374;2022-11-15T00:16:28;11.10;;;7.55;;
54406;SDS011;40313;50.308;30.374;2022-11-15T00:18:54;9.85;;;7.70;;
54406;SDS011;40313;50.308;30.374;2022-11-15T00:21:22;10.52;;;8.45;;
54406;SDS011;40313;50.308;30.374;2022-11-15T00:23:49;10.43;;;8.35;;
54406;SDS011;40313;50.308;30.374;2022-11-15T00:26:15;8.93;;;8.20;;
54406;SDS011;40313;50.308;30.374;2022-11-15T00:28:42;10.35;;;9.30;;
54406;SDS011;40313;50.308;30.374;2022-11-15T00:31:11;17.83;;;10.35;;
54406;SDS011;40313;50.308;30.374;2022-11-15T00:33:39;18.63;;;9.25;;
54406;SDS011;40313;50.308;30.374;2022-11-15T00:36:08;14.50;;;9.45;;
54406;SDS011;40313;50.308;30.374;2022-11-15T00:38:36;10.57;;;9.40;;
54406;SDS011;40313;50.308;30.374;2022-11-15T00:41:04;10.32;;;8.77;;
54406;SDS011;40313;50.308;30.374;2022-11-15T00:43:32;9.23;;;8.60;;
54406;SDS011;40313;50.308;30.374;2022-11-15T00:45:59;9.90;;;9.20;;
54406;SDS011;40313;50.308;30.374;2022-11-15T00:48:28;14.25;;;8.88;;
54406;SDS011;40313;50.308;30.374;2022-11-15T00:50:56;13.90;;;9.57;;
54406;SDS011;40313;50.308;30.374;2022-11-15T00:53:23;9.73;;;8.65;;
54406;SDS011;40313;50.308;30.374;2022-11-15T00:55:50;11.32;;;10.05;;
54406;SDS011;40313;50.308;30.374;2022-11-15T00:58:16;10.05;;;9.05;;
54406;SDS011;40313;50.308;30.374;2022-11-15T01:00:43;14.30;;;9.95;;
54406;SDS011;40313;50.308;30.374;2022-11-15T01:03:10;12.00;;;10.15;;
54406;SDS011;40313;50.308;30.374;2022-11-15T01:05:38;10.50;;;9.63;;
54406;SDS011;40313;50.308;30.374;2022-11-15T01:08:05;10.73;;;9.75;;
54406;SDS011;40313;50.308;30.374;2022-11-15T01:10:32;12.23;;;10.52;;
54406;SDS011;40313;50.308;30.374;2022-11-15T01:12:59;12.65;;;9.65;;
54406;SDS011;40313;50.308;30.374;2022-11-15T01:15:26;10.38;;;9.48;;
54406;SDS011;40313;50.308;30.374;2022-11-15T01:17:53;10.15;;;9.27;;
54406;SDS011;40313;50.308;30.374;2022-11-15T01:20:19;13.35;;;10.15;;
54406;SDS011;40313;50.308;30.374;2022-11-15T01:22:48;12.55;;;9.35;;
54406;SDS011;40313;50.308;30.374;2022-11-15T01:25:14;13.13;;;9.77;;
54406;SDS011;40313;50.308;30.374;2022-11-15T01:27:41;12.23;;;10.10;;
54406;SDS011;40313;50.308;30.374;2022-11-15T01:30:08;9.13;;;8.40;;
54406;SDS011;40313;50.308;30.374;2022-11-15T01:32:35;14.88;;;10.13;;
54406;SDS011;40313;50.308;30.374;2022-11-15T01:35:02;9.10;;;8.23;;
54406;SDS011;40313;50.308;30.374;2022-11-15T01:37:29;9.55;;;8.70;;
54406;SDS011;40313;50.308;30.374;2022-11-15T01:39:57;11.23;;;10.30;;
54406;SDS011;40313;50.308;30.374;2022-11-15T01:42:24;8.75;;;8.05;;
54406;SDS011;40313;50.308;30.374;2022-11-15T01:44:51;14.65;;;10.48;;
54406;SDS011;40313;50.308;30.374;2022-11-15T01:47:20;10.25;;;9.23;;
54406;SDS011;40313;50.308;30.374;2022-11-15T01:49:52;10.77;;;8.98;;
54406;SDS011;40313;50.308;30.374;2022-11-15T01:52:24;9.35;;;8.82;;
54406;SDS011;40313;50.308;30.374;2022-11-15T01:54:53;10.30;;;9.32;;
54406;SDS011;40313;50.308;30.374;2022-11-15T01:57:27;15.18;;;9.70;;
54406;SDS011;40313;50.308;30.374;2022-11-15T01:59:54;10.55;;;9.68;;
54406;SDS011;40313;50.308;30.374;2022-11-15T02:02:22;11.02;;;10.00;;
54406;SDS011;40313;50.308;30.374;2022-11-15T02:04:48;15.13;;;9.45;;
54406;SDS011;40313;50.308;30.374;2022-11-15T02:07:16;9.85;;;8.95;;
54406;SDS011;40313;50.308;30.374;2022-11-15T02:09:44;8.77;;;8.00;;
54406;SDS011;40313;50.308;30.374;2022-11-15T02:12:13;14.15;;;9.93;;
54406;SDS011;40313;50.308;30.374;2022-11-15T02:14:43;10.77;;;9.98;;
54406;SDS011;40313;50.308;30.374;2022-11-15T02:17:21;10.77;;;9.98;;
54406;SDS011;40313;50.308;30.374;2022-11-15T02:23:02;11.85;;;8.93;;
54406;SDS011;40313;50.308;30.374;2022-11-15T02:25:44;11.07;;;10.00;;
54406;SDS011;40313;50.308;30.374;2022-11-15T02:28:26;11.60;;;9.02;;
54406;SDS011;40313;50.308;30.374;2022-11-15T02:31:10;9.82;;;9.05;;
54406;SDS011;40313;50.308;30.374;2022-11-15T02:33:43;10.95;;;9.23;;
54406;SDS011;40313;50.308;30.374;2022-11-15T02:36:21;11.45;;;9.32;;
54406;SDS011;40313;50.308;30.374;2022-11-15T02:38:57;12.07;;;9.48;;
54406;SDS011;40313;50.308;30.374;2022-11-15T02:41:30;10.50;;;9.65;;
54406;SDS011;40313;50.308;30.374;2022-11-15T02:44:07;9.38;;;8.30;;
54406;SDS011;40313;50.308;30.374;2022-11-15T02:46:39;11.05;;;8.82;;
54406;SDS011;40313;50.308;30.374;2022-11-15T02:49:27;15.93;;;8.80;;
54406;SDS011;40313;50.308;30.374;2022-11-15T02:51:57;10.57;;;9.27;;
54406;SDS011;40313;50.308;30.374;2022-11-15T02:54:24;11.13;;;10.13;;
54406;SDS011;40313;50.308;30.374;2022-11-15T02:56:53;10.15;;;9.18;;
54406;SDS011;40313;50.308;30.374;2022-11-15T02:59:33;9.88;;;8.88;;
54406;SDS011;40313;50.308;30.374;2022-11-15T03:02:28;13.30;;;9.50;;
54406;SDS011;40313;50.308;30.374;2022-11-15T03:05:24;9.52;;;8.85;;
54406;SDS011;40313;50.308;30.374;2022-11-15T03:08:00;11.82;;;10.80;;
54406;SDS011;40313;50.308;30.374;2022-11-15T03:10:36;15.65;;;10.65;;
54406;SDS011;40313;50.308;30.374;2022-11-15T03:13:16;11.52;;;9.52;;
54406;SDS011;40313;50.308;30.374;2022-11-15T03:15:49;10.73;;;9.93;;
54406;SDS011;40313;50.308;30.374;2022-11-15T03:18:23;15.90;;;10.53;;
54406;SDS011;40313;50.308;30.374;2022-11-15T03:20:56;12.50;;;11.50;;
54406;SDS011;40313;50.308;30.374;2022-11-15T03:23:26;12.02;;;10.73;;
54406;SDS011;40313;50.308;30.374;2022-11-15T03:25:56;14.80;;;13.27;;
54406;SDS011;40313;50.308;30.374;2022-11-15T06:13:12;20.58;;;15.85;;
54406;SDS011;40313;50.308;30.374;2022-11-15T06:15:38;26.08;;;14.63;;
54406;SDS011;40313;50.308;30.374;2022-11-15T06:18:05;17.33;;;13.43;;
54406;SDS011;40313;50.308;30.374;2022-11-15T06:20:31;22.52;;;15.23;;
54406;SDS011;40313;50.308;30.374;2022-11-15T06:22:58;19.38;;;15.20;;
54406;SDS011;40313;50.308;30.374;2022-11-15T06:25:25;17.70;;;14.05;;
54406;SDS011;40313;50.308;30.374;2022-11-15T06:27:52;19.80;;;14.13;;
54406;SDS011;40313;50.308;30.374;2022-11-15T06:30:20;20.00;;;13.98;;
54406;SDS011;40313;50.308;30.374;2022-11-15T06:32:47;20.48;;;14.60;;
54406;SDS011;40313;50.308;30.374;2022-11-15T06:35:14;18.75;;;14.15;;
54406;SDS011;40313;50.308;30.374;2022-11-15T06:37:40;15.73;;;14.13;;
54406;SDS011;40313;50.308;30.374;2022-11-15T06:40:08;16.88;;;13.27;;
54406;SDS011;40313;50.308;30.374;2022-11-15T06:42:35;15.00;;;13.60;;
54406;SDS011;40313;50.308;30.374;2022-11-15T06:45:02;20.77;;;14.45;;
54406;SDS011;40313;50.308;30.374;2022-11-15T06:47:30;14.10;;;12.50;;
54406;SDS011;40313;50.308;30.374;2022-11-15T06:49:57;12.32;;;11.15;;
54406;SDS011;40313;50.308;30.374;2022-11-15T06:52:23;11.60;;;10.45;;
54406;SDS011;40313;50.308;30.374;2022-11-15T06:54:50;15.15;;;12.90;;
54406;SDS011;40313;50.308;30.374;2022-11-15T06:57:17;15.75;;;11.15;;
54406;SDS011;40313;50.308;30.374;2022-11-15T06:59:43;19.90;;;12.77;;
54406;SDS011;40313;50.308;30.374;2022-11-15T07:02:11;16.45;;;14.27;;
54406;SDS011;40313;50.308;30.374;2022-11-15T07:04:40;22.23;;;13.65;;
54406;SDS011;40313;50.308;30.374;2022-11-15T07:07:06;18.80;;;14.32;;
54406;SDS011;40313;50.308;30.374;2022-11-15T07:09:33;24.27;;;14.70;;
54406;SDS011;40313;50.308;30.374;2022-11-15T07:11:59;16.70;;;14.73;;
54406;SDS011;40313;50.308;30.374;2022-11-15T07:14:26;23.75;;;14.70;;
54406;SDS011;40313;50.308;30.374;2022-11-15T07:16:52;26.05;;;16.23;;
54406;SDS011;40313;50.308;30.374;2022-11-15T07:19:19;27.63;;;18.60;;
54406;SDS011;40313;50.308;30.374;2022-11-15T07:21:47;24.88;;;20.02;;
54406;SDS011;40313;50.308;30.374;2022-11-15T07:24:13;31.75;;;20.88;;
54406;SDS011;40313;50.308;30.374;2022-11-15T07:26:40;26.33;;;19.48;;
54406;SDS011;40313;50.308;30.374;2022-11-15T07:29:06;27.80;;;21.25;;
54406;SDS011;40313;50.308;30.374;2022-11-15T07:31:33;29.48;;;19.58;;
54406;SDS011;40313;50.308;30.374;2022-11-15T07:33:59;27.13;;;21.73;;
54406;SDS011;40313;50.308;30.374;2022-11-15T07:36:26;26.73;;;20.38;;
54406;SDS011;40313;50.308;30.374;2022-11-15T07:38:54;35.70;;;25.90;;
54406;SDS011;40313;50.308;30.374;2022-11-15T07:41:20;44.53;;;31.23;;
54406;SDS011;40313;50.308;30.374;2022-11-15T07:43:47;37.05;;;27.40;;
54406;SDS011;40313;50.308;30.374;2022-11-15T07:46:17;32.50;;;21.05;;
54406;SDS011;40313;50.308;30.374;2022-11-15T07:48:44;29.85;;;22.65;;
54406;SDS011;40313;50.308;30.374;2022-11-15T07:51:11;21.85;;;19.35;;
54406;SDS011;40313;50.308;30.374;2022-11-15T07:53:38;21.50;;;18.95;;
54406;SDS011;40313;50.308;30.374;2022-11-15T07:56:07;29.42;;;19.20;;
54406;SDS011;40313;50.308;30.374;2022-11-15T07:58:34;27.77;;;20.55;;
54406;SDS011;40313;50.308;30.374;2022-11-15T08:01:02;21.77;;;18.13;;
54406;SDS011;40313;50.308;30.374;2022-11-15T08:03:28;24.65;;;19.05;;
54406;SDS011;40313;50.308;30.374;2022-11-15T08:05:55;21.40;;;19.08;;
54406;SDS011;40313;50.308;30.374;2022-11-15T08:08:22;24.65;;;20.00;;
54406;SDS011;40313;50.308;30.374;2022-11-15T08:10:48;22.42;;;19.73;;
54406;SDS011;40313;50.308;30.374;2022-11-15T08:13:16;22.17;;;19.00;;
54406;SDS011;40313;50.308;30.374;2022-11-15T08:15:43;27.10;;;20.77;;
54406;SDS011;40313;50.308;30.374;2022-11-15T08:18:10;20.92;;;17.75;;
54406;SDS011;40313;50.308;30.374;2022-11-15T08:20:38;23.70;;;18.65;;
54406;SDS011;40313;50.308;30.374;2022-11-15T08:23:05;21.38;;;19.05;;
54406;SDS011;40313;50.308;30.374;2022-11-15T08:25:33;27.35;;;20.33;;
54406;SDS011;40313;50.308;30.374;2022-11-15T08:28:02;26.77;;;20.60;;
54406;SDS011;40313;50.308;30.374;2022-11-15T08:30:33;25.02;;;19.05;;
54406;SDS011;40313;50.308;30.374;2022-11-15T08:33:02;23.50;;;19.08;;
54406;SDS011;40313;50.308;30.374;2022-11-15T08:35:30;18.48;;;16.35;;
54406;SDS011;40313;50.308;30.374;2022-11-15T08:37:56;15.18;;;13.77;;
54406;SDS011;40313;50.308;30.374;2022-11-15T08:40:23;13.55;;;12.38;;
54406;SDS011;40313;50.308;30.374;2022-11-15T08:42:49;14.88;;;13.02;;
54406;SDS011;40313;50.308;30.374;2022-11-15T08:45:16;14.15;;;12.80;;
54406;SDS011;40313;50.308;30.374;2022-11-15T08:47:44;16.30;;;14.38;;
54406;SDS011;40313;50.308;30.374;2022-11-15T08:50:10;23.13;;;15.25;;
54406;SDS011;40313;50.308;30.374;2022-11-15T08:52:37;16.08;;;14.65;;
54406;SDS011;40313;50.308;30.374;2022-11-15T08:55:04;27.13;;;15.57;;
54406;SDS011;40313;50.308;30.374;2022-11-15T08:57:31;20.02;;;15.07;;
54406;SDS011;40313;50.308;30.374;2022-11-15T08:59:57;15.98;;;14.05;;
54406;SDS011;40313;50.308;30.374;2022-11-15T09:02:24;14.77;;;13.65;;
54406;SDS011;40313;50.308;30.374;2022-11-15T09:04:52;15.95;;;14.48;;
54406;SDS011;40313;50.308;30.374;2022-11-15T09:07:18;15.40;;;14.07;;
54406;SDS011;40313;50.308;30.374;2022-11-15T09:09:45;16.10;;;14.43;;
54406;SDS011;40313;50.308;30.374;2022-11-15T09:12:11;18.88;;;16.23;;
54406;SDS011;40313;50.308;30.374;2022-11-15T09:14:38;22.73;;;18.92;;
54406;SDS011;40313;50.308;30.374;2022-11-15T09:17:06;18.85;;;15.10;;
54406;SDS011;40313;50.308;30.374;2022-11-15T09:19:33;20.88;;;15.90;;
54406;SDS011;40313;50.308;30.374;2022-11-15T09:22:01;23.35;;;16.48;;
54406;SDS011;40313;50.308;30.374;2022-11-15T09:24:28;25.13;;;18.08;;
54406;SDS011;40313;50.308;30.374;2022-11-15T09:26:54;22.88;;;17.20;;
54406;SDS011;40313;50.308;30.374;2022-11-15T09:29:21;21.42;;;18.40;;
54406;SDS011;40313;50.308;30.374;2022-11-15T09:31:47;24.83;;;18.17;;
54406;SDS011;40313;50.308;30.374;2022-11-15T09:34:14;20.85;;;15.93;;
54406;SDS011;40313;50.308;30.374;2022-11-15T09:36:40;29.30;;;20.10;;
54406;SDS011;40313;50.308;30.374;2022-11-15T09:39:08;29.48;;;19.98;;
54406;SDS011;40313;50.308;30.374;2022-11-15T09:41:43;23.65;;;18.60;;
54406;SDS011;40313;50.308;30.374;2022-11-15T09:44:23;26.80;;;18.73;;
54406;SDS011;40313;50.308;30.374;2022-11-15T09:47:04;19.73;;;15.85;;
54406;SDS011;40313;50.308;30.374;2022-11-15T09:49:41;25.02;;;16.75;;
54406;SDS011;40313;50.308;30.374;2022-11-15T09:52:08;26.20;;;16.45;;
54406;SDS011;40313;50.308;30.374;2022-11-15T09:54:38;20.88;;;18.52;;
54406;SDS011;40313;50.308;30.374;2022-11-15T09:57:09;26.42;;;20.58;;
54406;SDS011;40313;50.308;30.374;2022-11-15T09:59:43;25.55;;;19.17;;
54406;SDS011;40313;50.308;30.374;2022-11-15T10:02:22;18.00;;;16.20;;
54406;SDS011;40313;50.308;30.374;2022-11-15T10:04:59;19.95;;;15.15;;
54406;SDS011;40313;50.308;30.374;2022-11-15T10:07:28;30.52;;;19.13;;
54406;SDS011;40313;50.308;30.374;2022-11-15T10:10:14;22.63;;;17.75;;
54406;SDS011;40313;50.308;30.374;2022-11-15T10:12:48;17.40;;;15.52;;
54406;SDS011;40313;50.308;30.374;2022-11-15T10:15:17;29.25;;;20.70;;
54406;SDS011;40313;50.308;30.374;2022-11-15T10:18:07;24.30;;;18.88;;
54406;SDS011;40313;50.308;30.374;2022-11-15T10:20:43;24.90;;;18.35;;
54406;SDS011;40313;50.308;30.374;2022-11-15T10:23:14;33.88;;;18.95;;
54406;SDS011;40313;50.308;30.374;2022-11-15T10:25:44;21.15;;;19.00;;
54406;SDS011;40313;50.308;30.374;2022-11-15T10:28:14;26.55;;;19.30;;
54406;SDS011;40313;50.308;30.374;2022-11-15T10:30:42;23.55;;;19.38;;
54406;SDS011;40313;50.308;30.374;2022-11-15T10:33:19;31.70;;;21.33;;
54406;SDS011;40313;50.308;30.374;2022-11-15T10:36:13;22.45;;;19.13;;
54406;SDS011;40313;50.308;30.374;2022-11-15T10:41:31;20.52;;;18.30;;
54406;SDS011;40313;50.308;30.374;2022-11-15T10:44:02;25.50;;;21.10;;
54406;SDS011;40313;50.308;30.374;2022-11-15T10:46:45;25.77;;;18.48;;
54406;SDS011;40313;50.308;30.374;2022-11-15T10:49:15;27.75;;;21.50;;
54406;SDS011;40313;50.308;30.374;2022-11-15T10:51:44;33.40;;;22.05;;
54406;SDS011;40313;50.308;30.374;2022-11-15T10:54:12;25.02;;;19.98;;
54406;SDS011;40313;50.308;30.374;2022-11-15T10:56:49;34.13;;;21.08;;
54406;SDS011;40313;50.308;30.374;2022-11-15T10:59:20;30.70;;;21.80;;
54406;SDS011;40313;50.308;30.374;2022-11-15T11:01:52;27.00;;;21.92;;
54406;SDS011;40313;50.308;30.374;2022-11-15T11:04:18;27.40;;;23.02;;
54406;SDS011;40313;50.308;30.374;2022-11-15T11:06:48;46.75;;;23.20;;
54406;SDS011;40313;50.308;30.374;2022-11-15T11:09:24;32.22;;;23.08;;
54406;SDS011;40313;50.308;30.374;2022-11-15T11:11:57;32.95;;;22.35;;
54406;SDS011;40313;50.308;30.374;2022-11-15T11:14:26;34.72;;;23.27;;
54406;SDS011;40313;50.308;30.374;2022-11-15T11:16:57;31.77;;;21.50;;
54406;SDS011;40313;50.308;30.374;2022-11-15T11:22:23;33.28;;;23.63;;
54406;SDS011;40313;50.308;30.374;2022-11-15T11:24:58;33.85;;;22.27;;
54406;SDS011;40313;50.308;30.374;2022-11-15T11:27:39;35.75;;;23.77;;
54406;SDS011;40313;50.308;30.374;2022-11-15T11:30:11;33.10;;;24.63;;
54406;SDS011;40313;50.308;30.374;2022-11-15T11:32:48;34.95;;;23.90;;
54406;SDS011;40313;50.308;30.374;2022-11-15T11:35:23;35.03;;;24.45;;
54406;SDS011;40313;50.308;30.374;2022-11-15T11:37:57;33.93;;;23.97;;
54406;SDS011;40313;50.308;30.374;2022-11-15T11:40:36;36.22;;;22.98;;
54406;SDS011;40313;50.308;30.374;2022-11-15T11:43:11;38.05;;;25.05;;
54406;SDS011;40313;50.308;30.374;2022-11-15T11:45:56;36.35;;;23.35;;
54406;SDS011;40313;50.308;30.374;2022-11-15T11:48:38;30.70;;;22.02;;
54406;SDS011;40313;50.308;30.374;2022-11-15T11:51:09;32.13;;;22.50;;
54406;SDS011;40313;50.308;30.374;2022-11-15T11:53:41;32.78;;;23.08;;
54406;SDS011;40313;50.308;30.374;2022-11-15T11:56:15;26.73;;;21.95;;
54406;SDS011;40313;50.308;30.374;2022-11-15T11:58:49;31.40;;;22.25;;
54406;SDS011;40313;50.308;30.374;2022-11-15T12:01:20;27.75;;;22.77;;
54406;SDS011;40313;50.308;30.374;2022-11-15T12:03:51;25.48;;;22.73;;
54406;SDS011;40313;50.308;30.374;2022-11-15T12:06:23;26.83;;;21.77;;
54406;SDS011;40313;50.308;30.374;2022-11-15T12:08:56;33.97;;;22.10;;
54406;SDS011;40313;50.308;30.374;2022-11-15T12:11:28;30.73;;;21.73;;
54406;SDS011;40313;50.308;30.374;2022-11-15T12:14:03;26.08;;;20.75;;
54406;SDS011;40313;50.308;30.374;2022-11-15T12:16:37;28.13;;;20.65;;
54406;SDS011;40313;50.308;30.374;2022-11-15T12:19:07;22.50;;;19.35;;
54406;SDS011;40313;50.308;30.374;2022-11-15T12:21:35;28.70;;;21.10;;
54406;SDS011;40313;50.308;30.374;2022-11-15T12:24:11;25.08;;;19.50;;
54406;SDS011;40313;50.308;30.374;2022-11-15T12:26:45;26.40;;;20.55;;
54406;SDS011;40313;50.308;30.374;2022-11-15T12:29:19;23.15;;;20.70;;
54406;SDS011;40313;50.308;30.374;2022-11-15T12:31:51;35.85;;;20.02;;
54406;SDS011;40313;50.308;30.374;2022-11-15T12:34:39;28.60;;;20.15;;
54406;SDS011;40313;50.308;30.374;2022-11-15T12:40:16;24.08;;;18.70;;
54406;SDS011;40313;50.308;30.374;2022-11-15T12:42:57;25.33;;;19.65;;
54406;SDS011;40313;50.308;30.374;2022-11-15T12:45:40;20.00;;;18.05;;
54406;SDS011;40313;50.308;30.374;2022-11-15T12:57:33;21.52;;;18.15;;
54406;SDS011;40313;50.308;30.374;2022-11-15T13:00:05;21.60;;;17.30;;
54406;SDS011;40313;50.308;30.374;2022-11-15T13:03:27;20.83;;;18.73;;
54406;SDS011;40313;50.308;30.374;2022-11-15T13:08:43;28.20;;;17.38;;
54406;SDS011;40313;50.308;30.374;2022-11-15T13:17:12;21.08;;;18.92;;
54406;SDS011;40313;50.308;30.374;2022-11-15T13:19:53;22.15;;;18.88;;
54406;SDS011;40313;50.308;30.374;2022-11-15T13:22:24;21.95;;;19.55;;
54406;SDS011;40313;50.308;30.374;2022-11-15T13:25:16;21.13;;;18.90;;
54406;SDS011;40313;50.308;30.374;2022-11-15T13:27:45;26.17;;;19.23;;
54406;SDS011;40313;50.308;30.374;2022-11-15T13:30:13;26.77;;;17.75;;
54406;SDS011;40313;50.308;30.374;2022-11-15T13:32:48;22.83;;;18.85;;
54406;SDS011;40313;50.308;30.374;2022-11-15T13:35:20;24.83;;;19.63;;
54406;SDS011;40313;50.308;30.374;2022-11-15T13:37:48;22.88;;;19.00;;
54406;SDS011;40313;50.308;30.374;2022-11-15T13:40:19;22.35;;;18.23;;
54406;SDS011;40313;50.308;30.374;2022-11-15T13:42:52;26.73;;;17.65;;
54406;SDS011;40313;50.308;30.374;2022-11-15T13:45:19;23.90;;;18.92;;
54406;SDS011;40313;50.308;30.374;2022-11-15T13:47:50;30.35;;;20.52;;
54406;SDS011;40313;50.308;30.374;2022-11-15T13:50:19;33.25;;;19.98;;
54406;SDS011;40313;50.308;30.374;2022-11-15T13:52:50;33.92;;;21.63;;
54406;SDS011;40313;50.308;30.374;2022-11-15T13:55:19;29.25;;;21.15;;
54406;SDS011;40313;50.308;30.374;2022-11-15T13:57:48;28.85;;;21.02;;
54406;SDS011;40313;50.308;30.374;2022-11-15T14:00:25;29.63;;;20.38;;
54406;SDS011;40313;50.308;30.374;2022-11-15T14:02:55;28.42;;;18.98;;
54406;SDS011;40313;50.308;30.374;2022-11-15T14:05:32;28.67;;;20.27;;
54406;SDS011;40313;50.308;30.374;2022-11-15T14:08:00;27.00;;;20.83;;
54406;SDS011;40313;50.308;30.374;2022-11-15T14:10:30;33.10;;;22.17;;
54406;SDS011;40313;50.308;30.374;2022-11-15T14:12:59;28.00;;;20.58;;
54406;SDS011;40313;50.308;30.374;2022-11-15T14:15:28;23.85;;;21.27;;
54406;SDS011;40313;50.308;30.374;2022-11-15T14:17:58;29.73;;;22.52;;
54406;SDS011;40313;50.308;30.374;2022-11-15T14:20:26;34.70;;;22.73;;
54406;SDS011;40313;50.308;30.374;2022-11-15T14:22:57;25.25;;;21.05;;
54406;SDS011;40313;50.308;30.374;2022-11-15T14:25:25;27.98;;;22.02;;
54406;SDS011;40313;50.308;30.374;2022-11-15T14:28:10;29.23;;;21.50;;
54406;SDS011;40313;50.308;30.374;2022-11-15T14:30:38;23.30;;;19.30;;
54406;SDS011;40313;50.308;30.374;2022-11-15T14:33:15;25.35;;;20.75;;
54406;SDS011;40313;50.308;30.374;2022-11-15T14:35:45;28.58;;;21.13;;
54406;SDS011;40313;50.308;30.374;2022-11-15T14:38:13;28.35;;;20.30;;
54406;SDS011;40313;50.308;30.374;2022-11-15T14:40:40;27.10;;;22.17;;
54406;SDS011;40313;50.308;30.374;2022-11-15T14:43:07;32.25;;;21.48;;
54406;SDS011;40313;50.308;30.374;2022-11-15T14:45:35;31.10;;;21.45;;
54406;SDS011;40313;50.308;30.374;2022-11-15T14:48:01;25.92;;;21.10;;
54406;SDS011;40313;50.308;30.374;2022-11-15T14:50:28;33.63;;;22.23;;
54406;SDS011;40313;50.308;30.374;2022-11-15T14:52:54;27.00;;;20.75;;
54406;SDS011;40313;50.308;30.374;2022-11-15T14:55:23;34.15;;;21.15;;
54406;SDS011;40313;50.308;30.374;2022-11-15T14:57:52;30.05;;;21.10;;
54406;SDS011;40313;50.308;30.374;2022-11-15T15:00:18;23.80;;;20.45;;
54406;SDS011;40313;50.308;30.374;2022-11-15T15:02:46;36.88;;;21.52;;
54406;SDS011;40313;50.308;30.374;2022-11-15T15:05:14;28.70;;;21.08;;
54406;SDS011;40313;50.308;30.374;2022-11-15T15:07:42;31.17;;;22.30;;
54406;SDS011;40313;50.308;30.374;2022-11-15T15:10:09;30.05;;;22.38;;
54406;SDS011;40313;50.308;30.374;2022-11-15T15:12:38;27.98;;;21.25;;
54406;SDS011;40313;50.308;30.374;2022-11-15T15:15:05;33.50;;;23.20;;
54406;SDS011;40313;50.308;30.374;2022-11-15T15:17:38;31.75;;;20.90;;
54406;SDS011;40313;50.308;30.374;2022-11-15T15:20:05;30.95;;;22.25;;
54406;SDS011;40313;50.308;30.374;2022-11-15T15:22:32;33.88;;;21.67;;
54406;SDS011;40313;50.308;30.374;2022-11-15T15:24:58;27.42;;;20.05;;
54406;SDS011;40313;50.308;30.374;2022-11-15T15:27:25;22.90;;;19.63;;
54406;SDS011;40313;50.308;30.374;2022-11-15T15:29:53;25.30;;;19.88;;
54406;SDS011;40313;50.308;30.374;2022-11-15T15:32:19;24.20;;;19.70;;
54406;SDS011;40313;50.308;30.374;2022-11-15T15:34:46;29.63;;;20.92;;
54406;SDS011;40313;50.308;30.374;2022-11-15T15:37:19;31.48;;;19.30;;
54406;SDS011;40313;50.308;30.374;2022-11-15T15:39:51;32.10;;;21.08;;
54406;SDS011;40313;50.308;30.374;2022-11-15T15:42:18;35.40;;;22.67;;
54406;SDS011;40313;50.308;30.374;2022-11-15T15:44:44;39.30;;;21.98;;
54406;SDS011;40313;50.308;30.374;2022-11-15T15:47:12;31.38;;;21.02;;
54406;SDS011;40313;50.308;30.374;2022-11-15T15:49:41;31.90;;;21.20;;
54406;SDS011;40313;50.308;30.374;2022-11-15T15:52:07;36.97;;;22.50;;
54406;SDS011;40313;50.308;30.374;2022-11-15T15:54:34;31.90;;;21.23;;
54406;SDS011;40313;50.308;30.374;2022-11-15T15:57:01;34.08;;;21.38;;
54406;SDS011;40313;50.308;30.374;2022-11-15T15:59:27;30.20;;;21.60;;
54406;SDS011;40313;50.308;30.374;2022-11-15T16:01:54;35.65;;;22.42;;
54406;SDS011;40313;50.308;30.374;2022-11-15T16:04:22;28.38;;;22.33;;
54406;SDS011;40313;50.308;30.374;2022-11-15T16:06:49;36.45;;;25.15;;
54406;SDS011;40313;50.308;30.374;2022-11-15T16:09:17;39.35;;;26.02;;
54406;SDS011;40313;50.308;30.374;2022-11-15T16:12:05;32.80;;;21.85;;
54406;SDS011;40313;50.308;30.374;2022-11-15T16:14:32;32.33;;;22.98;;
54406;SDS011;40313;50.308;30.374;2022-11-15T16:16:58;35.88;;;22.60;;
54406;SDS011;40313;50.308;30.374;2022-11-15T16:19:26;45.80;;;26.13;;
54406;SDS011;40313;50.308;30.374;2022-11-15T16:21:53;40.75;;;23.67;;
54406;SDS011;40313;50.308;30.374;2022-11-15T16:24:19;43.30;;;27.60;;
54406;SDS011;40313;50.308;30.374;2022-11-15T16:26:46;43.20;;;27.70;;
54406;SDS011;40313;50.308;30.374;2022-11-15T16:29:14;34.15;;;24.95;;
54406;SDS011;40313;50.308;30.374;2022-11-15T16:31:41;42.88;;;25.40;;
54406;SDS011;40313;50.308;30.374;2022-11-15T16:34:07;42.20;;;25.13;;
54406;SDS011;40313;50.308;30.374;2022-11-15T16:36:35;43.80;;;27.25;;
54406;SDS011;40313;50.308;30.374;2022-11-15T16:39:02;52.42;;;28.45;;
54406;SDS011;40313;50.308;30.374;2022-11-15T16:41:30;50.10;;;27.33;;
54406;SDS011;40313;50.308;30.374;2022-11-15T16:43:56;45.58;;;28.67;;
54406;SDS011;40313;50.308;30.374;2022-11-15T16:46:24;43.08;;;28.38;;
54406;SDS011;40313;50.308;30.374;2022-11-15T16:48:52;51.28;;;29.10;;
54406;SDS011;40313;50.308;30.374;2022-11-15T16:51:19;39.65;;;25.55;;
54406;SDS011;40313;50.308;30.374;2022-11-15T16:53:48;38.45;;;22.73;;
54406;SDS011;40313;50.308;30.374;2022-11-15T16:56:19;27.65;;;22.70;;
54406;SDS011;40313;50.308;30.374;2022-11-15T16:58:48;33.17;;;22.27;;
54406;SDS011;40313;50.308;30.374;2022-11-15T17:01:19;29.55;;;21.88;;
54406;SDS011;40313;50.308;30.374;2022-11-15T17:03:49;34.30;;;21.73;;
54406;SDS011;40313;50.308;30.374;2022-11-15T17:06:15;33.28;;;24.17;;
54406;SDS011;40313;50.308;30.374;2022-11-15T17:08:43;44.60;;;26.38;;
54406;SDS011;40313;50.308;30.374;2022-11-15T17:11:12;50.75;;;28.20;;
54406;SDS011;40313;50.308;30.374;2022-11-15T17:13:40;53.35;;;29.65;;
54406;SDS011;40313;50.308;30.374;2022-11-15T17:16:07;42.72;;;26.40;;
54406;SDS011;40313;50.308;30.374;2022-11-15T17:18:36;34.58;;;24.45;;
54406;SDS011;40313;50.308;30.374;2022-11-15T17:21:04;29.85;;;22.65;;
54406;SDS011;40313;50.308;30.374;2022-11-15T17:23:31;34.08;;;23.35;;
54406;SDS011;40313;50.308;30.374;2022-11-15T17:25:58;27.40;;;22.30;;
54406;SDS011;40313;50.308;30.374;2022-11-15T17:28:29;41.60;;;28.25;;
54406;SDS011;40313;50.308;30.374;2022-11-15T17:30:55;43.05;;;24.35;;
54406;SDS011;40313;50.308;30.374;2022-11-15T17:33:23;41.38;;;25.27;;
54406;SDS011;40313;50.308;30.374;2022-11-15T17:35:54;31.45;;;23.63;;
54406;SDS011;40313;50.308;30.374;2022-11-15T17:38:21;29.98;;;23.05;;
54406;SDS011;40313;50.308;30.374;2022-11-15T17:40:47;34.13;;;25.42;;
54406;SDS011;40313;50.308;30.374;2022-11-15T17:43:14;39.28;;;27.05;;